createdAt,value
2019-02-17T00:00:01.617Z,11.50
2019-02-17T00:02:30.895Z,13.43
2019-02-17T00:05:00.382Z,23.20
2019-02-17T00:07:29.664Z,16.07
2019-02-17T00:09:59.353Z,23.93
2019-02-17T00:12:28.668Z,19.83
2019-02-17T00:14:58.254Z,19.33
2019-02-17T00:17:27.565Z,14.87
2019-02-17T00:23:04.503Z,20.33
2019-02-17T00:25:34.199Z,17.87
2019-02-17T00:28:03.499Z,17.43
2019-02-17T00:30:33.038Z,18.43
2019-02-17T00:33:02.326Z,15.80
2019-02-17T00:35:52.676Z,29.33
2019-02-17T00:38:21.966Z,19.97
2019-02-17T00:41:10.240Z,13.73
2019-02-17T00:43:39.534Z,25.67
2019-02-17T00:46:08.849Z,20.23
2019-02-17T00:48:38.122Z,22.27
2019-02-17T00:51:07.490Z,19.20
2019-02-17T00:53:36.790Z,21.93
2019-02-17T00:56:06.299Z,23.40
2019-02-17T00:58:35.594Z,20.00
2019-02-17T01:01:05.007Z,21.33
2019-02-17T01:06:40.211Z,16.87
2019-02-17T01:09:09.628Z,16.93
2019-02-17T01:11:39.164Z,21.10
2019-02-17T01:14:08.441Z,23.83
2019-02-17T01:16:37.769Z,24.13
2019-02-17T01:19:07.064Z,13.33
2019-02-17T01:21:36.341Z,20.07
2019-02-17T01:24:26.358Z,14.93
2019-02-17T01:26:55.662Z,15.47
2019-02-17T01:29:25.282Z,23.00
2019-02-17T01:31:54.550Z,14.07
2019-02-17T01:34:24.203Z,19.20
2019-02-17T01:36:53.499Z,19.47
2019-02-17T01:39:23.144Z,20.83
2019-02-17T01:42:11.491Z,22.63
2019-02-17T01:44:40.784Z,19.73
2019-02-17T01:47:10.112Z,23.43
2019-02-17T01:49:39.531Z,17.93
2019-02-17T01:52:09.017Z,27.03
2019-02-17T01:54:38.315Z,33.90
2019-02-17T01:57:26.665Z,26.00
2019-02-17T01:59:55.987Z,18.83
2019-02-17T02:02:25.358Z,21.63
2019-02-17T02:04:55.093Z,21.10
2019-02-17T02:10:12.705Z,19.07
2019-02-17T02:12:42.176Z,22.70
2019-02-17T02:15:11.500Z,19.17
2019-02-17T02:17:41.237Z,22.27
2019-02-17T02:20:11.357Z,22.20
2019-02-17T02:23:01.074Z,24.60
2019-02-17T02:25:30.709Z,21.27
2019-02-17T02:28:00.034Z,30.03
2019-02-17T02:30:29.421Z,33.77
2019-02-17T02:32:58.717Z,26.27
2019-02-17T02:35:28.272Z,28.15
2019-02-17T02:37:57.550Z,20.90
2019-02-17T02:40:27.226Z,32.40
2019-02-17T02:42:56.511Z,24.70
2019-02-17T02:45:25.962Z,24.13
2019-02-17T02:47:55.249Z,31.03
2019-02-17T02:50:24.557Z,20.53
2019-02-17T02:52:53.853Z,36.27
2019-02-17T02:58:11.703Z,26.57
2019-02-17T03:00:40.993Z,23.37
2019-02-17T03:03:29.350Z,22.47
2019-02-17T03:06:17.574Z,23.87
2019-02-17T03:08:47.117Z,20.10
2019-02-17T03:11:16.409Z,23.47
2019-02-17T03:13:46.085Z,31.63
2019-02-17T03:16:15.371Z,26.00
2019-02-17T03:18:44.949Z,25.93
2019-02-17T03:21:14.255Z,25.97
2019-02-17T03:23:43.600Z,22.90
2019-02-17T03:26:12.971Z,19.50
2019-02-17T03:28:42.246Z,25.03
2019-02-17T03:31:11.608Z,15.07
2019-02-17T03:33:41.023Z,27.80
2019-02-17T03:36:29.434Z,15.40
2019-02-17T03:41:34.108Z,19.07
2019-02-17T03:44:22.350Z,20.30
2019-02-17T03:46:51.636Z,14.27
2019-02-17T03:49:39.902Z,19.57
2019-02-17T03:52:09.457Z,14.93
2019-02-17T03:54:38.761Z,23.03
2019-02-17T03:57:08.632Z,15.67
2019-02-17T03:59:37.942Z,15.80
2019-02-17T04:02:07.374Z,18.20
2019-02-17T04:04:55.631Z,25.70
2019-02-17T04:07:24.916Z,13.80
2019-02-17T04:09:54.447Z,22.23
2019-02-17T04:12:23.722Z,23.20
2019-02-17T04:14:53.351Z,21.93
2019-02-17T04:17:22.630Z,15.23
2019-02-17T04:19:52.232Z,18.17
2019-02-17T04:22:21.617Z,21.27
2019-02-17T04:24:51.842Z,26.17
2019-02-17T04:27:21.517Z,18.13
2019-02-17T04:29:51.584Z,25.70
2019-02-17T04:32:21.081Z,19.73
2019-02-17T04:34:51.079Z,21.70
2019-02-17T04:37:20.446Z,24.00
2019-02-17T04:39:50.150Z,21.87
2019-02-17T04:42:19.836Z,25.03
2019-02-17T04:44:49.220Z,33.07
2019-02-17T04:47:18.843Z,33.80
2019-02-17T04:49:48.454Z,25.47
2019-02-17T04:52:18.314Z,33.07
2019-02-17T04:54:47.925Z,24.17
2019-02-17T04:57:17.711Z,25.00
2019-02-17T04:59:47.415Z,30.83
2019-02-17T05:02:17.641Z,30.03
2019-02-17T05:04:47.614Z,25.70
2019-02-17T05:07:36.430Z,25.17
2019-02-17T05:10:45.298Z,31.73
2019-02-17T05:13:14.853Z,19.97
2019-02-17T05:15:44.696Z,26.77
2019-02-17T05:18:14.387Z,26.73
2019-02-17T05:20:44.302Z,22.87
2019-02-17T05:23:13.967Z,30.10
2019-02-17T05:26:02.557Z,28.73
2019-02-17T05:28:32.715Z,27.60
2019-02-17T05:31:02.415Z,27.17
2019-02-17T05:33:32.183Z,20.80
2019-02-17T05:36:20.448Z,33.70
2019-02-17T05:38:49.934Z,24.00
2019-02-17T05:41:19.341Z,32.87
2019-02-17T05:43:48.640Z,32.27
2019-02-17T05:46:18.170Z,24.30
2019-02-17T05:48:47.452Z,29.83
2019-02-17T05:51:16.962Z,27.23
2019-02-17T05:53:46.335Z,29.27
2019-02-17T05:56:15.621Z,25.53
2019-02-17T05:58:44.976Z,22.13
2019-02-17T06:01:14.790Z,33.40
2019-02-17T06:03:44.389Z,21.50
2019-02-17T06:06:15.058Z,24.20
2019-02-17T06:08:45.844Z,22.03
2019-02-17T06:11:15.174Z,29.40
2019-02-17T06:14:03.554Z,29.30
2019-02-17T06:19:47.350Z,28.07
2019-02-17T06:22:16.794Z,30.60
2019-02-17T06:24:46.083Z,24.30
2019-02-17T06:27:15.487Z,29.27
2019-02-17T06:29:44.788Z,23.23
2019-02-17T06:34:49.430Z,21.27
2019-02-17T06:37:18.755Z,61.13
2019-02-17T06:39:48.557Z,22.60
2019-02-17T06:42:17.849Z,24.50
2019-02-17T06:44:47.186Z,25.33
2019-02-17T06:50:10.976Z,24.37
2019-02-17T06:52:40.258Z,44.27
2019-02-17T06:55:28.596Z,23.27
2019-02-17T06:57:58.109Z,19.40
2019-02-17T07:00:46.329Z,31.77
2019-02-17T07:03:15.612Z,18.80
2019-02-17T07:06:06.675Z,18.13
2019-02-17T07:08:36.291Z,33.33
2019-02-17T07:11:24.777Z,36.70
2019-02-17T07:13:54.054Z,22.60
2019-02-17T07:16:24.002Z,27.47
2019-02-17T07:18:53.303Z,47.00
2019-02-17T07:21:22.968Z,46.60
2019-02-17T07:23:52.270Z,36.00
2019-02-17T07:26:21.767Z,25.23
2019-02-17T07:28:51.043Z,39.70
2019-02-17T07:31:22.539Z,28.43
2019-02-17T07:33:51.585Z,48.97
2019-02-17T07:36:22.121Z,35.17
2019-02-17T07:38:52.193Z,35.83
2019-02-17T07:41:21.565Z,85.70
2019-02-17T07:43:51.070Z,53.17
2019-02-17T07:46:20.531Z,34.93
2019-02-17T07:48:50.073Z,54.47
2019-02-17T07:51:19.384Z,38.50
2019-02-17T07:53:48.798Z,41.43
2019-02-17T07:56:18.125Z,66.97
2019-02-17T07:58:47.700Z,38.97
2019-02-17T08:01:16.999Z,21.83
2019-02-17T08:03:46.337Z,32.10
2019-02-17T08:06:15.641Z,24.07
2019-02-17T08:08:44.974Z,29.40
2019-02-17T08:11:14.363Z,36.63
2019-02-17T08:13:43.764Z,28.03
2019-02-17T08:16:32.487Z,28.53
2019-02-17T08:19:01.797Z,23.93
2019-02-17T08:21:31.195Z,27.23
2019-02-17T08:24:00.647Z,37.17
2019-02-17T08:26:29.952Z,52.23
2019-02-17T08:28:59.819Z,33.97
2019-02-17T08:31:29.221Z,33.30
2019-02-17T08:33:58.554Z,26.70
2019-02-17T08:36:27.865Z,29.50
2019-02-17T08:38:57.352Z,23.87
2019-02-17T08:41:52.736Z,34.00
2019-02-17T08:44:22.191Z,19.23
2019-02-17T08:46:51.485Z,21.47
2019-02-17T08:49:20.958Z,19.90
2019-02-17T08:51:50.297Z,44.67
2019-02-17T08:54:19.783Z,29.93
2019-02-17T08:56:49.101Z,24.33
2019-02-17T08:59:18.464Z,25.90
2019-02-17T09:04:23.070Z,23.03
2019-02-17T09:06:52.490Z,18.40
2019-02-17T09:09:21.790Z,28.40
2019-02-17T09:11:51.295Z,23.30
2019-02-17T09:14:20.666Z,22.00
2019-02-17T09:16:50.182Z,25.20
2019-02-17T09:19:38.687Z,25.10
2019-02-17T09:22:08.003Z,22.47
2019-02-17T09:24:37.447Z,26.33
2019-02-17T09:27:06.752Z,22.10
2019-02-17T09:29:36.315Z,25.67
2019-02-17T09:32:15.684Z,20.07
2019-02-17T09:34:36.869Z,20.70
2019-02-17T09:37:06.175Z,24.07
2019-02-17T09:39:35.510Z,18.27
2019-02-17T09:42:04.808Z,21.70
2019-02-17T09:44:34.301Z,21.00
2019-02-17T09:47:03.622Z,16.53
2019-02-17T09:49:33.179Z,23.27
2019-02-17T09:52:21.789Z,18.90
2019-02-17T09:54:51.101Z,17.80
2019-02-17T10:00:10.879Z,16.53
2019-02-17T10:02:40.241Z,16.97
2019-02-17T10:07:58.185Z,16.90
2019-02-17T10:10:27.490Z,18.53
2019-02-17T10:12:57.133Z,18.43
2019-02-17T10:15:45.799Z,14.60
2019-02-17T10:18:15.128Z,17.83
2019-02-17T10:20:44.688Z,15.37
2019-02-17T10:23:14.009Z,15.43
2019-02-17T10:25:43.576Z,14.27
2019-02-17T10:28:12.943Z,12.33
2019-02-17T10:30:42.402Z,14.50
2019-02-17T10:33:11.707Z,15.40
2019-02-17T10:35:41.387Z,14.45
2019-02-17T10:38:10.702Z,13.90
2019-02-17T10:40:40.261Z,13.77
2019-02-17T10:43:09.643Z,11.10
2019-02-17T10:45:39.289Z,14.00
2019-02-17T10:48:08.632Z,10.23
2019-02-17T10:50:38.298Z,12.13
2019-02-17T10:53:07.628Z,10.97
2019-02-17T10:58:12.446Z,11.80
2019-02-17T11:00:41.757Z,10.77
2019-02-17T11:03:11.556Z,11.57
2019-02-17T11:08:16.187Z,10.97
2019-02-17T11:10:45.858Z,10.13
2019-02-17T11:13:15.206Z,12.83
2019-02-17T11:15:44.600Z,8.43
2019-02-17T11:18:13.930Z,8.20
2019-02-17T11:20:43.329Z,8.00
2019-02-17T11:23:12.605Z,8.93
2019-02-17T11:25:42.507Z,6.90
2019-02-17T11:28:23.793Z,7.27
2019-02-17T11:30:53.180Z,7.73
2019-02-17T11:33:22.494Z,5.93
2019-02-17T11:35:52.177Z,7.73
2019-02-17T11:38:21.548Z,6.30
2019-02-17T11:40:51.213Z,7.30
2019-02-17T11:43:20.576Z,6.87
2019-02-17T11:45:50.215Z,9.53
2019-02-17T11:48:19.547Z,7.60
2019-02-17T11:50:49.203Z,8.23
2019-02-17T11:53:18.553Z,36.13
2019-02-17T11:55:49.011Z,18.93
2019-02-17T11:58:18.432Z,24.93
2019-02-17T12:00:48.183Z,16.83
2019-02-17T12:03:17.534Z,29.97
2019-02-17T12:05:47.249Z,15.67
2019-02-17T12:08:35.772Z,12.27
2019-02-17T12:16:37.039Z,13.87
2019-02-17T12:22:12.811Z,6.50
2019-02-17T12:24:47.254Z,9.03
2019-02-17T12:27:54.614Z,6.87
2019-02-17T12:30:25.752Z,6.50
2019-02-17T12:32:55.115Z,6.20
2019-02-17T12:35:24.580Z,10.67
2019-02-17T12:37:53.996Z,7.27
2019-02-17T12:40:23.485Z,5.77
2019-02-17T12:42:52.856Z,6.33
2019-02-17T12:45:22.255Z,5.40
2019-02-17T12:47:57.891Z,8.13
2019-02-17T12:50:22.824Z,6.17
2019-02-17T12:53:11.108Z,8.93
2019-02-17T12:55:40.474Z,7.97
2019-02-17T13:01:17.390Z,5.57
2019-02-17T13:03:47.251Z,6.27
2019-02-17T13:06:16.633Z,8.57
2019-02-17T13:08:46.375Z,8.53
2019-02-17T13:11:15.757Z,9.10
2019-02-17T13:13:45.420Z,7.40
2019-02-17T13:16:33.850Z,6.80
2019-02-17T13:19:03.239Z,6.20
2019-02-17T13:21:32.821Z,7.60
2019-02-17T13:24:02.150Z,8.17
2019-02-17T13:26:31.677Z,7.97
2019-02-17T13:31:36.305Z,7.63
2019-02-17T13:34:06.040Z,8.97
2019-02-17T13:36:35.515Z,8.47
2019-02-17T13:39:44.214Z,8.93
2019-02-17T13:42:13.511Z,11.30
2019-02-17T13:44:42.992Z,10.30
2019-02-17T13:47:12.279Z,9.67
2019-02-17T13:49:41.612Z,10.63
2019-02-17T13:52:10.924Z,15.43
2019-02-17T13:54:40.454Z,12.97
2019-02-17T13:57:09.751Z,11.97
2019-02-17T13:59:39.273Z,10.93
2019-02-17T14:02:08.641Z,14.83
2019-02-17T14:04:38.252Z,9.60
2019-02-17T14:07:26.467Z,11.97
2019-02-17T14:09:55.769Z,13.03
2019-02-17T14:12:25.229Z,18.37
2019-02-17T14:15:14.063Z,18.13
2019-02-17T14:17:43.669Z,17.73
2019-02-17T14:20:13.531Z,18.65
2019-02-17T14:22:42.826Z,18.10
2019-02-17T14:25:51.687Z,17.83
2019-02-17T14:28:20.999Z,18.00
2019-02-17T14:33:39.036Z,21.57
2019-02-17T14:36:08.433Z,19.53
2019-02-17T14:38:37.859Z,18.87
2019-02-17T14:41:07.143Z,19.80
2019-02-17T14:43:36.503Z,17.30
2019-02-17T14:46:05.896Z,16.63
2019-02-17T14:48:35.200Z,16.17
2019-02-17T14:51:04.621Z,20.63
2019-02-17T14:53:33.926Z,24.37
2019-02-17T14:56:03.240Z,20.37
2019-02-17T14:58:32.538Z,16.90
2019-02-17T15:01:01.859Z,24.83
2019-02-17T15:03:31.230Z,20.30
2019-02-17T15:06:00.597Z,19.30
2019-02-17T15:08:29.935Z,18.53
2019-02-17T15:10:59.255Z,21.63
2019-02-17T15:13:28.610Z,19.40
2019-02-17T15:15:57.911Z,21.63
2019-02-17T15:21:02.727Z,17.90
2019-02-17T15:23:32.075Z,28.57
2019-02-17T15:28:51.323Z,21.67
2019-02-17T15:31:20.879Z,26.73
2019-02-17T15:33:50.277Z,20.53
2019-02-17T15:36:19.575Z,22.53
2019-02-17T15:38:49.120Z,23.57
2019-02-17T15:41:18.440Z,22.33
2019-02-17T15:44:06.771Z,21.20
2019-02-17T15:46:36.245Z,19.73
2019-02-17T15:49:05.542Z,22.47
2019-02-17T15:51:34.981Z,19.60
2019-02-17T15:54:04.278Z,16.13
2019-02-17T15:56:33.638Z,19.10
2019-02-17T15:59:22.094Z,20.00
2019-02-17T16:01:51.386Z,20.40
2019-02-17T16:04:28.087Z,22.27
2019-02-17T16:06:51.987Z,18.67
2019-02-17T16:09:21.379Z,22.00
2019-02-17T16:11:50.691Z,23.13
2019-02-17T16:14:20.145Z,18.13
2019-02-17T16:16:49.485Z,22.80
2019-02-17T16:19:18.886Z,22.27
2019-02-17T16:21:48.168Z,23.63
2019-02-17T16:24:17.567Z,26.60
2019-02-17T16:26:46.867Z,21.20
2019-02-17T16:29:16.327Z,25.27
2019-02-17T16:31:45.643Z,20.30
2019-02-17T16:34:15.610Z,24.13
2019-02-17T16:36:44.921Z,19.53
2019-02-17T16:39:14.486Z,25.90
2019-02-17T16:41:43.794Z,20.90
2019-02-17T16:44:13.457Z,23.13
2019-02-17T16:47:01.717Z,23.73
2019-02-17T16:49:31.016Z,21.33
2019-02-17T16:52:00.650Z,20.87
2019-02-17T16:54:49.204Z,22.77
2019-02-17T16:57:18.510Z,21.73
2019-02-17T16:59:48.033Z,22.13
2019-02-17T17:02:17.320Z,34.03
2019-02-17T17:04:48.876Z,40.97
2019-02-17T17:07:17.814Z,51.60
2019-02-17T17:09:47.347Z,25.83
2019-02-17T17:12:16.648Z,23.93
2019-02-17T17:14:46.365Z,19.57
2019-02-17T17:17:15.668Z,20.63
2019-02-17T17:19:45.179Z,21.47
2019-02-17T17:22:14.483Z,20.03
2019-02-17T17:24:43.911Z,22.77
2019-02-17T17:27:13.221Z,29.00
2019-02-17T17:29:42.595Z,25.37
2019-02-17T17:32:11.963Z,26.43
2019-02-17T17:34:41.336Z,23.77
2019-02-17T17:37:10.647Z,23.93
2019-02-17T17:39:40.129Z,23.70
2019-02-17T17:42:09.436Z,22.37
2019-02-17T17:44:39.290Z,27.03
2019-02-17T17:47:08.607Z,25.73
2019-02-17T17:49:38.167Z,19.57
2019-02-17T17:52:07.459Z,31.87
2019-02-17T17:54:36.878Z,28.87
2019-02-17T17:57:06.198Z,33.13
2019-02-17T17:59:35.842Z,23.10
2019-02-17T18:02:05.155Z,26.13
2019-02-17T18:04:34.541Z,22.13
2019-02-17T18:07:03.850Z,23.63
2019-02-17T18:09:33.389Z,21.87
2019-02-17T18:12:02.687Z,28.30
2019-02-17T18:14:32.180Z,26.93
2019-02-17T18:19:49.790Z,25.43
2019-02-17T18:22:19.241Z,27.10
2019-02-17T18:24:48.529Z,23.27
2019-02-17T18:27:18.214Z,26.87
2019-02-17T18:29:47.517Z,22.07
2019-02-17T18:32:17.183Z,28.60
2019-02-17T18:34:46.524Z,22.73
2019-02-17T18:37:16.520Z,26.80
2019-02-17T18:39:45.996Z,25.63
2019-02-17T18:42:15.752Z,28.50
2019-02-17T18:44:45.222Z,32.43
2019-02-17T18:47:15.390Z,21.00
2019-02-17T18:50:03.948Z,21.67
2019-02-17T18:52:33.328Z,20.53
2019-02-17T18:55:03.318Z,25.60
2019-02-17T18:57:51.946Z,22.87
2019-02-17T19:03:10.104Z,23.10
2019-02-17T19:05:58.603Z,18.77
2019-02-17T19:08:28.689Z,20.47
2019-02-17T19:10:58.795Z,21.90
2019-02-17T19:13:31.052Z,28.60
2019-02-17T19:16:00.763Z,20.60
2019-02-17T19:18:30.143Z,20.07
2019-02-17T19:23:49.302Z,17.27
2019-02-17T19:29:26.410Z,20.13
2019-02-17T19:31:55.782Z,18.20
2019-02-17T19:34:25.365Z,17.67
2019-02-17T19:37:13.572Z,19.37
2019-02-17T19:39:42.994Z,18.13
2019-02-17T19:42:12.369Z,22.80
2019-02-17T19:45:00.858Z,17.93
2019-02-17T19:47:30.242Z,17.57
2019-02-17T19:50:18.468Z,17.87
2019-02-17T19:52:48.120Z,18.03
2019-02-17T19:55:17.463Z,18.37
2019-02-17T19:57:47.073Z,18.87
2019-02-17T20:00:16.466Z,19.50
2019-02-17T20:03:04.710Z,15.87
2019-02-17T20:05:36.418Z,21.30
2019-02-17T20:08:05.812Z,18.67
2019-02-17T20:10:35.245Z,20.77
2019-02-17T20:13:04.571Z,15.90
2019-02-17T20:18:09.431Z,15.40
2019-02-17T20:20:38.813Z,13.27
2019-02-17T20:23:08.240Z,17.50
2019-02-17T20:25:37.539Z,18.40
2019-02-17T20:28:06.986Z,17.07
2019-02-17T20:30:36.302Z,14.03
2019-02-17T20:33:05.808Z,17.50
2019-02-17T20:35:35.109Z,17.00
2019-02-17T20:38:04.427Z,20.00
2019-02-17T20:43:08.999Z,22.87
2019-02-17T20:45:38.322Z,19.87
2019-02-17T20:48:07.619Z,19.17
2019-02-17T20:50:36.938Z,15.73
2019-02-17T20:53:06.276Z,19.83
2019-02-17T20:55:35.583Z,19.50
2019-02-17T20:58:05.067Z,23.90
2019-02-17T21:00:34.377Z,21.10
2019-02-17T21:03:03.823Z,19.30
2019-02-17T21:05:33.127Z,30.97
2019-02-17T21:08:02.470Z,27.70
2019-02-17T21:13:08.144Z,29.63
2019-02-17T21:15:37.509Z,37.27
2019-02-17T21:18:06.824Z,35.50
2019-02-17T21:20:36.594Z,40.50
2019-02-17T21:23:06.002Z,34.43
2019-02-17T21:25:35.369Z,31.83
2019-02-17T21:28:04.687Z,35.97
2019-02-17T21:30:34.394Z,34.73
2019-02-17T21:33:03.839Z,36.37
2019-02-17T21:35:33.453Z,33.43
2019-02-17T21:38:21.691Z,32.77
2019-02-17T21:40:51.005Z,35.23
2019-02-17T21:43:20.733Z,33.70
2019-02-17T21:45:50.034Z,36.03
2019-02-17T21:48:19.453Z,35.57
2019-02-17T21:50:48.813Z,32.70
2019-02-17T21:53:20.852Z,43.67
2019-02-17T21:55:49.500Z,45.63
2019-02-17T21:58:18.900Z,41.13
2019-02-17T22:00:48.208Z,50.43
2019-02-17T22:03:17.670Z,39.30
2019-02-17T22:05:46.969Z,44.03
2019-02-17T22:08:35.286Z,58.07
2019-02-17T22:11:04.877Z,55.43
2019-02-17T22:13:34.243Z,54.17
2019-02-17T22:16:03.761Z,49.70
2019-02-17T22:18:33.322Z,49.07
2019-02-17T22:21:02.798Z,55.13
2019-02-17T22:23:32.122Z,52.07
2019-02-17T22:26:20.488Z,52.33
2019-02-17T22:28:50.019Z,53.70
2019-02-17T22:31:19.320Z,47.73
2019-02-17T22:33:49.012Z,59.87
2019-02-17T22:36:18.332Z,42.80
2019-02-17T22:41:23.354Z,50.03
2019-02-17T22:43:52.657Z,47.20
2019-02-17T22:46:22.451Z,42.87
2019-02-17T22:48:51.759Z,43.90
2019-02-17T22:51:21.278Z,41.90
2019-02-17T22:53:50.581Z,45.80
2019-02-17T22:56:20.046Z,44.93
2019-02-17T22:58:49.329Z,44.70
2019-02-17T23:01:59.941Z,45.53
2019-02-17T23:04:29.310Z,41.03
2019-02-17T23:06:58.820Z,43.90
2019-02-17T23:09:28.307Z,40.80
2019-02-17T23:11:57.921Z,43.93
2019-02-17T23:14:27.238Z,47.67
2019-02-17T23:16:56.765Z,45.73
2019-02-17T23:19:27.151Z,48.00
2019-02-17T23:21:56.445Z,37.37
2019-02-17T23:27:21.196Z,45.80
2019-02-17T23:29:50.504Z,44.83
2019-02-17T23:32:20.030Z,37.80
2019-02-17T23:34:49.371Z,41.77
2019-02-17T23:40:08.337Z,45.37
2019-02-17T23:42:37.697Z,43.70
2019-02-17T23:45:07.894Z,37.47
2019-02-17T23:47:37.187Z,41.17
2019-02-17T23:50:25.640Z,50.23
2019-02-17T23:52:54.974Z,47.77
2019-02-17T23:55:24.273Z,37.37
2019-02-17T23:57:53.569Z,42.30
